sensor_id;sensor_type;location;lat;lon;timestamp;temperature;humidity
18047;DHT22;9148;51.454;13.862;2023-04-06T00:01:48;-0.50;99.90
18047;DHT22;9148;51.454;13.862;2023-04-06T00:04:14;-0.60;99.90
18047;DHT22;9148;51.454;13.862;2023-04-06T00:06:39;-0.50;99.90
18047;DHT22;9148;51.454;13.862;2023-04-06T00:09:05;-0.60;99.90
18047;DHT22;9148;51.454;13.862;2023-04-06T00:11:31;-0.60;99.90
18047;DHT22;9148;51.454;13.862;2023-04-06T00:13:57;-0.60;99.90
18047;DHT22;9148;51.454;13.862;2023-04-06T00:16:22;-0.70;99.90
18047;DHT22;9148;51.454;13.862;2023-04-06T00:18:48;-0.80;99.90
18047;DHT22;9148;51.454;13.862;2023-04-06T00:21:14;-0.70;99.90
18047;DHT22;9148;51.454;13.862;2023-04-06T00:23:41;-0.80;99.90
18047;DHT22;9148;51.454;13.862;2023-04-06T00:26:07;-0.80;99.90
18047;DHT22;9148;51.454;13.862;2023-04-06T00:28:33;-0.90;99.90
18047;DHT22;9148;51.454;13.862;2023-04-06T00:30:59;-0.90;99.90
18047;DHT22;9148;51.454;13.862;2023-04-06T00:33:25;-0.90;99.90
18047;DHT22;9148;51.454;13.862;2023-04-06T00:35:51;-1.00;99.90
18047;DHT22;9148;51.454;13.862;2023-04-06T00:38:17;-1.00;99.90
18047;DHT22;9148;51.454;13.862;2023-04-06T00:40:43;-0.90;99.90
18047;DHT22;9148;51.454;13.862;2023-04-06T00:43:12;-1.00;99.90
18047;DHT22;9148;51.454;13.862;2023-04-06T00:45:38;-1.10;99.90
18047;DHT22;9148;51.454;13.862;2023-04-06T00:48:05;-1.10;99.90
18047;DHT22;9148;51.454;13.862;2023-04-06T00:50:31;-1.10;99.90
18047;DHT22;9148;51.454;13.862;2023-04-06T00:52:58;-1.20;99.90
18047;DHT22;9148;51.454;13.862;2023-04-06T00:55:26;-2.00;99.90
18047;DHT22;9148;51.454;13.862;2023-04-06T00:57:51;-1.30;99.90
18047;DHT22;9148;51.454;13.862;2023-04-06T01:00:17;-1.40;99.90
18047;DHT22;9148;51.454;13.862;2023-04-06T01:02:43;-1.40;99.90
18047;DHT22;9148;51.454;13.862;2023-04-06T01:05:10;-1.40;99.90
18047;DHT22;9148;51.454;13.862;2023-04-06T01:07:36;-1.40;99.90
18047;DHT22;9148;51.454;13.862;2023-04-06T01:10:02;-1.40;99.90
18047;DHT22;9148;51.454;13.862;2023-04-06T01:12:28;-1.50;99.90
18047;DHT22;9148;51.454;13.862;2023-04-06T01:14:54;-1.50;99.90
18047;DHT22;9148;51.454;13.862;2023-04-06T01:17:20;-1.50;99.90
18047;DHT22;9148;51.454;13.862;2023-04-06T01:19:45;-1.50;99.90
18047;DHT22;9148;51.454;13.862;2023-04-06T01:22:18;-1.60;99.90
18047;DHT22;9148;51.454;13.862;2023-04-06T01:24:44;-1.60;99.90
18047;DHT22;9148;51.454;13.862;2023-04-06T01:27:10;-1.50;99.90
18047;DHT22;9148;51.454;13.862;2023-04-06T01:29:36;-1.60;99.90
18047;DHT22;9148;51.454;13.862;2023-04-06T01:32:02;-1.60;99.90
18047;DHT22;9148;51.454;13.862;2023-04-06T01:34:28;-1.70;99.90
18047;DHT22;9148;51.454;13.862;2023-04-06T01:36:53;-1.80;99.90
18047;DHT22;9148;51.454;13.862;2023-04-06T01:39:19;-1.70;99.90
18047;DHT22;9148;51.454;13.862;2023-04-06T01:41:46;-1.60;99.90
18047;DHT22;9148;51.454;13.862;2023-04-06T01:44:18;-1.80;99.90
18047;DHT22;9148;51.454;13.862;2023-04-06T01:46:44;-1.80;99.90
18047;DHT22;9148;51.454;13.862;2023-04-06T01:49:11;-1.90;99.90
18047;DHT22;9148;51.454;13.862;2023-04-06T01:51:37;-1.80;99.90
18047;DHT22;9148;51.454;13.862;2023-04-06T01:54:03;-1.50;99.90
18047;DHT22;9148;51.454;13.862;2023-04-06T01:56:29;-1.80;99.90
18047;DHT22;9148;51.454;13.862;2023-04-06T01:58:54;-1.80;99.90
18047;DHT22;9148;51.454;13.862;2023-04-06T02:01:20;-1.70;99.90
18047;DHT22;9148;51.454;13.862;2023-04-06T02:03:46;-1.90;99.90
18047;DHT22;9148;51.454;13.862;2023-04-06T02:06:12;-2.60;99.90
18047;DHT22;9148;51.454;13.862;2023-04-06T02:08:37;-1.90;99.90
18047;DHT22;9148;51.454;13.862;2023-04-06T02:11:03;-1.90;99.90
18047;DHT22;9148;51.454;13.862;2023-04-06T02:13:29;-1.90;99.90
18047;DHT22;9148;51.454;13.862;2023-04-06T02:15:54;-2.00;99.90
18047;DHT22;9148;51.454;13.862;2023-04-06T02:18:20;-1.90;99.90
18047;DHT22;9148;51.454;13.862;2023-04-06T02:20:46;-1.90;99.90
18047;DHT22;9148;51.454;13.862;2023-04-06T02:23:12;-1.90;99.90
18047;DHT22;9148;51.454;13.862;2023-04-06T02:25:38;-2.10;99.90
18047;DHT22;9148;51.454;13.862;2023-04-06T02:28:04;-2.70;99.90
18047;DHT22;9148;51.454;13.862;2023-04-06T02:30:29;-2.20;99.90
18047;DHT22;9148;51.454;13.862;2023-04-06T02:32:57;-2.10;99.90
18047;DHT22;9148;51.454;13.862;2023-04-06T02:35:22;-2.30;99.90
18047;DHT22;9148;51.454;13.862;2023-04-06T02:37:49;-1.50;99.90
18047;DHT22;9148;51.454;13.862;2023-04-06T02:40:15;-2.30;99.90
18047;DHT22;9148;51.454;13.862;2023-04-06T02:42:41;-2.20;99.90
18047;DHT22;9148;51.454;13.862;2023-04-06T02:45:07;-2.30;99.90
18047;DHT22;9148;51.454;13.862;2023-04-06T02:47:33;-1.70;99.90
18047;DHT22;9148;51.454;13.862;2023-04-06T02:49:59;-2.30;99.90
18047;DHT22;9148;51.454;13.862;2023-04-06T02:52:25;-2.30;99.90
18047;DHT22;9148;51.454;13.862;2023-04-06T02:54:52;-2.40;99.90
18047;DHT22;9148;51.454;13.862;2023-04-06T02:57:18;-2.40;99.90
18047;DHT22;9148;51.454;13.862;2023-04-06T02:59:43;-2.40;99.90
18047;DHT22;9148;51.454;13.862;2023-04-06T03:02:09;-2.30;99.90
18047;DHT22;9148;51.454;13.862;2023-04-06T03:04:35;-2.40;99.90
18047;DHT22;9148;51.454;13.862;2023-04-06T03:07:01;-2.50;99.90
18047;DHT22;9148;51.454;13.862;2023-04-06T03:09:26;-2.50;99.90
18047;DHT22;9148;51.454;13.862;2023-04-06T03:11:52;-2.50;99.90
18047;DHT22;9148;51.454;13.862;2023-04-06T03:14:18;-2.50;99.90
18047;DHT22;9148;51.454;13.862;2023-04-06T03:16:47;-2.50;99.90
18047;DHT22;9148;51.454;13.862;2023-04-06T03:19:14;-2.60;99.90
18047;DHT22;9148;51.454;13.862;2023-04-06T03:21:39;-2.50;99.90
18047;DHT22;9148;51.454;13.862;2023-04-06T03:24:05;-2.60;99.90
18047;DHT22;9148;51.454;13.862;2023-04-06T03:26:31;-3.20;99.90
18047;DHT22;9148;51.454;13.862;2023-04-06T03:28:57;-2.60;99.90
18047;DHT22;9148;51.454;13.862;2023-04-06T03:31:26;-2.60;99.90
18047;DHT22;9148;51.454;13.862;2023-04-06T03:33:52;-2.40;99.90
18047;DHT22;9148;51.454;13.862;2023-04-06T03:36:17;-2.60;99.90
18047;DHT22;9148;51.454;13.862;2023-04-06T03:38:43;-2.70;99.90
18047;DHT22;9148;51.454;13.862;2023-04-06T03:41:09;-2.70;99.90
18047;DHT22;9148;51.454;13.862;2023-04-06T03:43:35;-2.70;99.90
18047;DHT22;9148;51.454;13.862;2023-04-06T03:46:01;-2.80;99.90
18047;DHT22;9148;51.454;13.862;2023-04-06T03:48:26;-2.70;99.90
18047;DHT22;9148;51.454;13.862;2023-04-06T03:50:52;-2.70;99.90
18047;DHT22;9148;51.454;13.862;2023-04-06T03:53:17;-2.70;99.90
18047;DHT22;9148;51.454;13.862;2023-04-06T03:55:43;-2.70;99.90
18047;DHT22;9148;51.454;13.862;2023-04-06T03:58:09;-2.70;99.90
18047;DHT22;9148;51.454;13.862;2023-04-06T04:00:35;-2.80;99.90
18047;DHT22;9148;51.454;13.862;2023-04-06T04:03:01;-2.70;99.90
18047;DHT22;9148;51.454;13.862;2023-04-06T04:05:27;-2.80;99.90
18047;DHT22;9148;51.454;13.862;2023-04-06T04:07:53;-2.80;99.90
18047;DHT22;9148;51.454;13.862;2023-04-06T04:10:19;-2.80;99.90
18047;DHT22;9148;51.454;13.862;2023-04-06T04:12:44;-2.80;99.90
18047;DHT22;9148;51.454;13.862;2023-04-06T04:15:10;-3.00;99.90
18047;DHT22;9148;51.454;13.862;2023-04-06T04:17:36;-2.90;99.90
18047;DHT22;9148;51.454;13.862;2023-04-06T04:20:01;-3.00;99.90
18047;DHT22;9148;51.454;13.862;2023-04-06T04:22:27;-2.90;99.90
18047;DHT22;9148;51.454;13.862;2023-04-06T04:24:53;-2.90;99.90
18047;DHT22;9148;51.454;13.862;2023-04-06T04:27:19;-3.10;99.90
18047;DHT22;9148;51.454;13.862;2023-04-06T04:29:45;-3.00;99.90
18047;DHT22;9148;51.454;13.862;2023-04-06T04:32:11;-3.00;99.90
18047;DHT22;9148;51.454;13.862;2023-04-06T04:34:37;-3.00;99.90
18047;DHT22;9148;51.454;13.862;2023-04-06T04:37:05;-3.10;99.90
18047;DHT22;9148;51.454;13.862;2023-04-06T04:39:31;-3.00;99.90
18047;DHT22;9148;51.454;13.862;2023-04-06T04:41:57;-3.00;99.90
18047;DHT22;9148;51.454;13.862;2023-04-06T04:44:23;-3.10;99.90
18047;DHT22;9148;51.454;13.862;2023-04-06T04:46:48;-3.10;99.90
18047;DHT22;9148;51.454;13.862;2023-04-06T04:49:14;-3.00;99.90
18047;DHT22;9148;51.454;13.862;2023-04-06T04:51:40;-3.00;99.90
18047;DHT22;9148;51.454;13.862;2023-04-06T04:54:06;-3.10;99.90
18047;DHT22;9148;51.454;13.862;2023-04-06T04:56:31;-3.00;99.90
18047;DHT22;9148;51.454;13.862;2023-04-06T04:58:57;-3.00;99.90
18047;DHT22;9148;51.454;13.862;2023-04-06T05:01:23;-2.90;99.90
18047;DHT22;9148;51.454;13.862;2023-04-06T05:03:48;-3.00;99.90
18047;DHT22;9148;51.454;13.862;2023-04-06T05:06:14;-2.90;99.90
18047;DHT22;9148;51.454;13.862;2023-04-06T05:08:40;-2.70;99.90
18047;DHT22;9148;51.454;13.862;2023-04-06T05:11:06;-2.70;99.90
18047;DHT22;9148;51.454;13.862;2023-04-06T05:13:32;-2.50;99.90
18047;DHT22;9148;51.454;13.862;2023-04-06T05:15:58;-2.40;99.90
18047;DHT22;9148;51.454;13.862;2023-04-06T05:18:24;-2.40;99.90
18047;DHT22;9148;51.454;13.862;2023-04-06T05:20:49;-2.10;99.90
18047;DHT22;9148;51.454;13.862;2023-04-06T05:23:16;-2.10;99.90
18047;DHT22;9148;51.454;13.862;2023-04-06T05:25:42;-2.00;99.90
18047;DHT22;9148;51.454;13.862;2023-04-06T05:28:08;-1.90;99.90
18047;DHT22;9148;51.454;13.862;2023-04-06T05:30:33;-1.70;99.90
18047;DHT22;9148;51.454;13.862;2023-04-06T05:33:00;-1.60;99.90
18047;DHT22;9148;51.454;13.862;2023-04-06T05:35:26;-1.40;99.90
18047;DHT22;9148;51.454;13.862;2023-04-06T05:37:52;-1.20;99.90
18047;DHT22;9148;51.454;13.862;2023-04-06T05:40:18;-1.10;99.90
18047;DHT22;9148;51.454;13.862;2023-04-06T05:42:43;-0.50;99.90
18047;DHT22;9148;51.454;13.862;2023-04-06T05:45:10;-0.70;99.90
18047;DHT22;9148;51.454;13.862;2023-04-06T05:47:39;-0.70;99.90
18047;DHT22;9148;51.454;13.862;2023-04-06T05:50:05;0.40;99.90
18047;DHT22;9148;51.454;13.862;2023-04-06T05:52:31;-0.30;99.90
18047;DHT22;9148;51.454;13.862;2023-04-06T05:54:57;-0.20;99.90
18047;DHT22;9148;51.454;13.862;2023-04-06T05:57:22;0.00;99.90
18047;DHT22;9148;51.454;13.862;2023-04-06T05:59:48;0.30;99.90
18047;DHT22;9148;51.454;13.862;2023-04-06T06:02:14;0.50;99.90
18047;DHT22;9148;51.454;13.862;2023-04-06T06:04:39;0.60;99.90
18047;DHT22;9148;51.454;13.862;2023-04-06T06:07:05;1.00;99.90
18047;DHT22;9148;51.454;13.862;2023-04-06T06:09:31;1.20;99.90
18047;DHT22;9148;51.454;13.862;2023-04-06T06:11:56;1.40;99.90
18047;DHT22;9148;51.454;13.862;2023-04-06T06:14:22;1.50;99.90
18047;DHT22;9148;51.454;13.862;2023-04-06T06:16:48;1.80;99.90
18047;DHT22;9148;51.454;13.862;2023-04-06T06:19:13;2.10;99.90
18047;DHT22;9148;51.454;13.862;2023-04-06T06:21:39;2.20;99.90
18047;DHT22;9148;51.454;13.862;2023-04-06T06:24:06;2.60;99.90
18047;DHT22;9148;51.454;13.862;2023-04-06T06:26:32;2.80;99.90
18047;DHT22;9148;51.454;13.862;2023-04-06T06:28:58;2.90;99.90
18047;DHT22;9148;51.454;13.862;2023-04-06T06:31:23;3.20;99.90
18047;DHT22;9148;51.454;13.862;2023-04-06T06:33:49;3.60;99.90
18047;DHT22;9148;51.454;13.862;2023-04-06T06:36:17;3.70;99.90
18047;DHT22;9148;51.454;13.862;2023-04-06T06:38:43;3.90;99.90
18047;DHT22;9148;51.454;13.862;2023-04-06T06:41:10;4.10;99.90
18047;DHT22;9148;51.454;13.862;2023-04-06T06:43:35;5.10;99.90
18047;DHT22;9148;51.454;13.862;2023-04-06T06:46:01;4.50;99.90
18047;DHT22;9148;51.454;13.862;2023-04-06T06:48:27;4.70;99.90
18047;DHT22;9148;51.454;13.862;2023-04-06T06:50:53;4.80;99.90
18047;DHT22;9148;51.454;13.862;2023-04-06T06:53:19;5.10;99.90
18047;DHT22;9148;51.454;13.862;2023-04-06T06:55:45;5.90;99.90
18047;DHT22;9148;51.454;13.862;2023-04-06T06:58:11;5.40;99.90
18047;DHT22;9148;51.454;13.862;2023-04-06T07:00:37;5.60;99.90
18047;DHT22;9148;51.454;13.862;2023-04-06T07:03:02;5.80;99.90
18047;DHT22;9148;51.454;13.862;2023-04-06T07:05:28;6.10;99.90
18047;DHT22;9148;51.454;13.862;2023-04-06T07:07:54;6.30;99.90
18047;DHT22;9148;51.454;13.862;2023-04-06T07:10:20;7.00;99.90
18047;DHT22;9148;51.454;13.862;2023-04-06T07:12:46;6.90;99.30
18047;DHT22;9148;51.454;13.862;2023-04-06T07:15:12;7.00;99.00
18047;DHT22;9148;51.454;13.862;2023-04-06T07:17:37;7.30;99.20
18047;DHT22;9148;51.454;13.862;2023-04-06T07:20:03;7.50;97.50
18047;DHT22;9148;51.454;13.862;2023-04-06T07:22:29;7.80;97.20
18047;DHT22;9148;51.454;13.862;2023-04-06T07:24:56;8.10;96.40
18047;DHT22;9148;51.454;13.862;2023-04-06T07:27:21;8.40;95.90
18047;DHT22;9148;51.454;13.862;2023-04-06T07:29:47;8.70;93.20
18047;DHT22;9148;51.454;13.862;2023-04-06T07:32:13;8.90;91.90
18047;DHT22;9148;51.454;13.862;2023-04-06T07:34:38;9.20;87.90
18047;DHT22;9148;51.454;13.862;2023-04-06T07:37:04;9.30;85.60
18047;DHT22;9148;51.454;13.862;2023-04-06T07:39:30;9.40;83.20
18047;DHT22;9148;51.454;13.862;2023-04-06T07:41:55;9.60;82.10
18047;DHT22;9148;51.454;13.862;2023-04-06T07:44:21;9.70;81.90
18047;DHT22;9148;51.454;13.862;2023-04-06T07:46:47;9.90;80.70
18047;DHT22;9148;51.454;13.862;2023-04-06T07:49:12;10.10;78.90
18047;DHT22;9148;51.454;13.862;2023-04-06T07:51:38;10.30;77.80
18047;DHT22;9148;51.454;13.862;2023-04-06T07:54:05;10.50;78.30
18047;DHT22;9148;51.454;13.862;2023-04-06T07:56:30;11.60;77.60
18047;DHT22;9148;51.454;13.862;2023-04-06T07:58:56;11.10;75.70
18047;DHT22;9148;51.454;13.862;2023-04-06T08:01:23;11.50;74.20
18047;DHT22;9148;51.454;13.862;2023-04-06T08:03:49;11.80;72.90
18047;DHT22;9148;51.454;13.862;2023-04-06T08:06:16;12.00;64.50
18047;DHT22;9148;51.454;13.862;2023-04-06T08:08:42;12.00;62.20
18047;DHT22;9148;51.454;13.862;2023-04-06T08:11:09;12.00;59.50
18047;DHT22;9148;51.454;13.862;2023-04-06T08:13:35;12.00;58.30
18047;DHT22;9148;51.454;13.862;2023-04-06T08:16:01;12.00;56.60
18047;DHT22;9148;51.454;13.862;2023-04-06T08:18:27;11.90;56.10
18047;DHT22;9148;51.454;13.862;2023-04-06T08:20:54;11.90;56.40
18047;DHT22;9148;51.454;13.862;2023-04-06T08:23:20;12.00;56.60
18047;DHT22;9148;51.454;13.862;2023-04-06T08:25:45;12.10;57.40
18047;DHT22;9148;51.454;13.862;2023-04-06T08:28:11;12.30;57.10
18047;DHT22;9148;51.454;13.862;2023-04-06T08:30:39;12.60;55.80
18047;DHT22;9148;51.454;13.862;2023-04-06T08:33:08;12.70;55.40
18047;DHT22;9148;51.454;13.862;2023-04-06T08:35:39;12.80;54.70
18047;DHT22;9148;51.454;13.862;2023-04-06T08:38:05;13.00;52.00
18047;DHT22;9148;51.454;13.862;2023-04-06T08:40:36;13.00;50.80
18047;DHT22;9148;51.454;13.862;2023-04-06T08:43:03;12.50;50.00
18047;DHT22;9148;51.454;13.862;2023-04-06T08:45:35;12.80;51.40
18047;DHT22;9148;51.454;13.862;2023-04-06T08:48:02;12.80;50.60
18047;DHT22;9148;51.454;13.862;2023-04-06T08:50:32;12.80;50.40
18047;DHT22;9148;51.454;13.862;2023-04-06T08:52:59;12.80;49.30
18047;DHT22;9148;51.454;13.862;2023-04-06T08:55:25;12.70;48.60
18047;DHT22;9148;51.454;13.862;2023-04-06T08:57:51;12.70;47.30
18047;DHT22;9148;51.454;13.862;2023-04-06T09:00:20;12.60;48.20
18047;DHT22;9148;51.454;13.862;2023-04-06T09:02:47;12.50;48.00
18047;DHT22;9148;51.454;13.862;2023-04-06T09:05:15;12.60;47.70
18047;DHT22;9148;51.454;13.862;2023-04-06T09:07:41;12.70;48.00
18047;DHT22;9148;51.454;13.862;2023-04-06T09:10:07;12.80;48.70
18047;DHT22;9148;51.454;13.862;2023-04-06T09:12:34;13.00;48.70
18047;DHT22;9148;51.454;13.862;2023-04-06T09:15:00;13.30;47.70
18047;DHT22;9148;51.454;13.862;2023-04-06T09:17:31;13.60;46.50
18047;DHT22;9148;51.454;13.862;2023-04-06T09:20:00;13.80;45.60
18047;DHT22;9148;51.454;13.862;2023-04-06T09:22:35;13.80;46.80
18047;DHT22;9148;51.454;13.862;2023-04-06T09:25:02;14.20;45.60
18047;DHT22;9148;51.454;13.862;2023-04-06T09:27:35;14.40;46.80
18047;DHT22;9148;51.454;13.862;2023-04-06T09:30:06;14.80;46.90
18047;DHT22;9148;51.454;13.862;2023-04-06T09:32:54;15.20;47.20
18047;DHT22;9148;51.454;13.862;2023-04-06T09:35:21;15.60;47.00
18047;DHT22;9148;51.454;13.862;2023-04-06T09:37:48;16.00;46.40
18047;DHT22;9148;51.454;13.862;2023-04-06T09:40:15;16.40;43.80
18047;DHT22;9148;51.454;13.862;2023-04-06T09:42:45;16.70;44.60
18047;DHT22;9148;51.454;13.862;2023-04-06T09:45:12;17.00;44.50
18047;DHT22;9148;51.454;13.862;2023-04-06T09:47:40;17.40;42.30
18047;DHT22;9148;51.454;13.862;2023-04-06T09:50:10;17.50;40.60
18047;DHT22;9148;51.454;13.862;2023-04-06T09:52:40;17.40;41.60
18047;DHT22;9148;51.454;13.862;2023-04-06T09:55:08;17.20;41.40
18047;DHT22;9148;51.454;13.862;2023-04-06T09:57:57;17.00;38.90
18047;DHT22;9148;51.454;13.862;2023-04-06T10:00:31;16.50;40.40
18047;DHT22;9148;51.454;13.862;2023-04-06T10:03:14;16.20;40.90
18047;DHT22;9148;51.454;13.862;2023-04-06T10:05:49;16.20;41.90
18047;DHT22;9148;51.454;13.862;2023-04-06T10:08:18;16.10;41.60
18047;DHT22;9148;51.454;13.862;2023-04-06T10:10:46;15.90;41.00
18047;DHT22;9148;51.454;13.862;2023-04-06T10:13:12;15.70;41.40
18047;DHT22;9148;51.454;13.862;2023-04-06T10:15:38;15.50;41.40
18047;DHT22;9148;51.454;13.862;2023-04-06T10:18:05;15.20;40.30
18047;DHT22;9148;51.454;13.862;2023-04-06T10:20:53;14.70;40.60
18047;DHT22;9148;51.454;13.862;2023-04-06T10:23:37;14.30;41.00
18047;DHT22;9148;51.454;13.862;2023-04-06T10:26:15;14.10;42.60
18047;DHT22;9148;51.454;13.862;2023-04-06T10:28:44;13.90;43.00
18047;DHT22;9148;51.454;13.862;2023-04-06T10:31:11;13.80;43.80
18047;DHT22;9148;51.454;13.862;2023-04-06T10:33:36;13.80;44.00
18047;DHT22;9148;51.454;13.862;2023-04-06T10:36:21;13.70;43.70
18047;DHT22;9148;51.454;13.862;2023-04-06T10:38:54;13.60;43.60
18047;DHT22;9148;51.454;13.862;2023-04-06T10:41:35;13.50;43.80
18047;DHT22;9148;51.454;13.862;2023-04-06T10:44:02;13.50;44.10
18047;DHT22;9148;51.454;13.862;2023-04-06T10:46:32;13.40;44.60
18047;DHT22;9148;51.454;13.862;2023-04-06T10:49:10;13.40;44.60
18047;DHT22;9148;51.454;13.862;2023-04-06T10:51:38;13.30;44.80
18047;DHT22;9148;51.454;13.862;2023-04-06T10:54:06;13.30;45.10
18047;DHT22;9148;51.454;13.862;2023-04-06T10:56:33;13.30;45.30
18047;DHT22;9148;51.454;13.862;2023-04-06T10:59:02;13.30;45.60
18047;DHT22;9148;51.454;13.862;2023-04-06T11:01:28;13.30;45.60
18047;DHT22;9148;51.454;13.862;2023-04-06T11:03:55;13.30;45.50
18047;DHT22;9148;51.454;13.862;2023-04-06T11:06:28;13.30;45.50
18047;DHT22;9148;51.454;13.862;2023-04-06T11:08:57;13.30;44.20
18047;DHT22;9148;51.454;13.862;2023-04-06T11:11:25;13.20;42.60
18047;DHT22;9148;51.454;13.862;2023-04-06T11:13:53;13.10;43.10
18047;DHT22;9148;51.454;13.862;2023-04-06T11:16:22;13.00;42.90
18047;DHT22;9148;51.454;13.862;2023-04-06T11:18:56;12.90;43.80
18047;DHT22;9148;51.454;13.862;2023-04-06T11:21:40;13.00;43.30
18047;DHT22;9148;51.454;13.862;2023-04-06T11:24:20;12.90;42.60
18047;DHT22;9148;51.454;13.862;2023-04-06T11:26:49;12.80;42.90
18047;DHT22;9148;51.454;13.862;2023-04-06T11:29:18;12.80;43.80
18047;DHT22;9148;51.454;13.862;2023-04-06T11:31:50;12.90;44.20
18047;DHT22;9148;51.454;13.862;2023-04-06T11:34:21;13.00;43.30
18047;DHT22;9148;51.454;13.862;2023-04-06T11:36:49;13.20;42.70
18047;DHT22;9148;51.454;13.862;2023-04-06T11:39:21;13.60;43.80
18047;DHT22;9148;51.454;13.862;2023-04-06T11:41:53;14.40;44.00
18047;DHT22;9148;51.454;13.862;2023-04-06T11:44:46;15.20;43.60
18047;DHT22;9148;51.454;13.862;2023-04-06T11:47:15;16.00;42.60
18047;DHT22;9148;51.454;13.862;2023-04-06T11:49:42;16.60;39.00
18047;DHT22;9148;51.454;13.862;2023-04-06T11:52:27;16.80;38.10
18047;DHT22;9148;51.454;13.862;2023-04-06T11:54:54;17.10;38.20
18047;DHT22;9148;51.454;13.862;2023-04-06T11:57:22;17.50;37.90
18047;DHT22;9148;51.454;13.862;2023-04-06T11:59:50;17.90;37.80
18047;DHT22;9148;51.454;13.862;2023-04-06T12:02:17;18.30;36.00
18047;DHT22;9148;51.454;13.862;2023-04-06T12:04:43;18.50;35.60
18047;DHT22;9148;51.454;13.862;2023-04-06T12:07:09;18.80;35.50
18047;DHT22;9148;51.454;13.862;2023-04-06T12:09:35;19.10;36.00
18047;DHT22;9148;51.454;13.862;2023-04-06T12:12:02;19.50;35.50
18047;DHT22;9148;51.454;13.862;2023-04-06T12:14:28;19.80;35.80
18047;DHT22;9148;51.454;13.862;2023-04-06T12:16:56;20.20;34.40
18047;DHT22;9148;51.454;13.862;2023-04-06T12:19:23;20.20;32.60
18047;DHT22;9148;51.454;13.862;2023-04-06T12:21:51;20.30;34.10
18047;DHT22;9148;51.454;13.862;2023-04-06T12:24:18;20.60;34.70
18047;DHT22;9148;51.454;13.862;2023-04-06T12:26:44;21.00;34.10
18047;DHT22;9148;51.454;13.862;2023-04-06T12:29:10;21.40;33.30
18047;DHT22;9148;51.454;13.862;2023-04-06T12:31:36;20.50;32.00
18047;DHT22;9148;51.454;13.862;2023-04-06T12:34:04;21.60;32.80
18047;DHT22;9148;51.454;13.862;2023-04-06T12:36:29;21.70;31.70
18047;DHT22;9148;51.454;13.862;2023-04-06T12:38:56;21.70;30.00
18047;DHT22;9148;51.454;13.862;2023-04-06T12:41:22;21.60;29.40
18047;DHT22;9148;51.454;13.862;2023-04-06T12:43:48;21.50;28.60
18047;DHT22;9148;51.454;13.862;2023-04-06T12:46:15;21.20;29.00
18047;DHT22;9148;51.454;13.862;2023-04-06T12:48:40;21.10;29.80
18047;DHT22;9148;51.454;13.862;2023-04-06T12:51:06;21.00;28.90
18047;DHT22;9148;51.454;13.862;2023-04-06T12:53:34;20.90;30.00
18047;DHT22;9148;51.454;13.862;2023-04-06T12:56:01;20.90;29.20
18047;DHT22;9148;51.454;13.862;2023-04-06T12:58:27;20.90;29.00
18047;DHT22;9148;51.454;13.862;2023-04-06T13:00:53;20.80;28.20
18047;DHT22;9148;51.454;13.862;2023-04-06T13:03:20;20.50;28.40
18047;DHT22;9148;51.454;13.862;2023-04-06T13:05:46;20.40;28.50
18047;DHT22;9148;51.454;13.862;2023-04-06T13:08:13;20.00;28.00
18047;DHT22;9148;51.454;13.862;2023-04-06T13:10:50;19.80;29.10
18047;DHT22;9148;51.454;13.862;2023-04-06T13:13:27;19.50;28.70
18047;DHT22;9148;51.454;13.862;2023-04-06T13:15:59;19.40;29.20
18047;DHT22;9148;51.454;13.862;2023-04-06T13:18:28;18.90;28.70
18047;DHT22;9148;51.454;13.862;2023-04-06T13:20:55;18.10;29.00
18047;DHT22;9148;51.454;13.862;2023-04-06T13:23:24;17.30;29.60
18047;DHT22;9148;51.454;13.862;2023-04-06T13:26:03;16.70;29.90
18047;DHT22;9148;51.454;13.862;2023-04-06T13:28:31;16.30;30.30
18047;DHT22;9148;51.454;13.862;2023-04-06T13:30:58;16.10;30.30
18047;DHT22;9148;51.454;13.862;2023-04-06T13:33:29;16.00;31.60
18047;DHT22;9148;51.454;13.862;2023-04-06T13:35:55;16.10;31.50
18047;DHT22;9148;51.454;13.862;2023-04-06T13:38:21;16.20;31.50
18047;DHT22;9148;51.454;13.862;2023-04-06T13:40:49;16.30;31.70
18047;DHT22;9148;51.454;13.862;2023-04-06T13:43:15;16.60;32.20
18047;DHT22;9148;51.454;13.862;2023-04-06T13:45:40;16.80;31.90
18047;DHT22;9148;51.454;13.862;2023-04-06T13:48:06;17.00;31.10
18047;DHT22;9148;51.454;13.862;2023-04-06T13:50:32;16.90;30.90
18047;DHT22;9148;51.454;13.862;2023-04-06T13:52:58;17.00;32.40
18047;DHT22;9148;51.454;13.862;2023-04-06T13:55:24;17.40;33.00
18047;DHT22;9148;51.454;13.862;2023-04-06T13:57:50;17.70;33.30
18047;DHT22;9148;51.454;13.862;2023-04-06T14:00:16;18.20;33.20
18047;DHT22;9148;51.454;13.862;2023-04-06T14:10:39;19.10;32.80
18047;DHT22;9148;51.454;13.862;2023-04-06T14:13:06;19.50;33.20
18047;DHT22;9148;51.454;13.862;2023-04-06T14:15:32;19.80;32.90
18047;DHT22;9148;51.454;13.862;2023-04-06T14:17:57;20.00;31.60
18047;DHT22;9148;51.454;13.862;2023-04-06T14:20:23;20.00;29.70
18047;DHT22;9148;51.454;13.862;2023-04-06T14:22:49;19.80;30.80
18047;DHT22;9148;51.454;13.862;2023-04-06T14:25:16;19.70;31.30
18047;DHT22;9148;51.454;13.862;2023-04-06T14:27:42;19.70;31.70
18047;DHT22;9148;51.454;13.862;2023-04-06T14:30:09;19.60;31.50
18047;DHT22;9148;51.454;13.862;2023-04-06T14:32:35;19.50;31.90
18047;DHT22;9148;51.454;13.862;2023-04-06T14:35:03;19.40;32.60
18047;DHT22;9148;51.454;13.862;2023-04-06T14:37:29;19.30;32.30
18047;DHT22;9148;51.454;13.862;2023-04-06T14:39:55;19.30;32.30
18047;DHT22;9148;51.454;13.862;2023-04-06T14:42:21;19.30;31.60
18047;DHT22;9148;51.454;13.862;2023-04-06T14:44:47;19.30;31.80
18047;DHT22;9148;51.454;13.862;2023-04-06T14:47:14;19.30;31.80
18047;DHT22;9148;51.454;13.862;2023-04-06T14:49:45;19.30;31.80
18047;DHT22;9148;51.454;13.862;2023-04-06T14:52:12;19.20;32.30
18047;DHT22;9148;51.454;13.862;2023-04-06T14:54:38;19.10;32.40
18047;DHT22;9148;51.454;13.862;2023-04-06T14:57:04;18.90;32.60
18047;DHT22;9148;51.454;13.862;2023-04-06T14:59:29;18.80;33.00
18047;DHT22;9148;51.454;13.862;2023-04-06T15:01:58;18.70;33.30
18047;DHT22;9148;51.454;13.862;2023-04-06T15:04:25;18.70;33.20
18047;DHT22;9148;51.454;13.862;2023-04-06T15:06:51;18.60;32.80
18047;DHT22;9148;51.454;13.862;2023-04-06T15:09:16;18.40;32.30
18047;DHT22;9148;51.454;13.862;2023-04-06T15:11:42;18.10;32.80
18047;DHT22;9148;51.454;13.862;2023-04-06T15:14:08;18.00;33.40
18047;DHT22;9148;51.454;13.862;2023-04-06T15:16:33;17.80;33.70
18047;DHT22;9148;51.454;13.862;2023-04-06T15:19:00;17.60;33.90
18047;DHT22;9148;51.454;13.862;2023-04-06T15:21:33;17.50;33.40
18047;DHT22;9148;51.454;13.862;2023-04-06T15:23:58;17.20;32.80
18047;DHT22;9148;51.454;13.862;2023-04-06T15:26:24;17.00;33.60
18047;DHT22;9148;51.454;13.862;2023-04-06T15:28:50;16.70;32.40
18047;DHT22;9148;51.454;13.862;2023-04-06T15:31:17;16.30;32.60
18047;DHT22;9148;51.454;13.862;2023-04-06T15:33:49;16.00;33.60
18047;DHT22;9148;51.454;13.862;2023-04-06T15:36:25;15.80;34.50
18047;DHT22;9148;51.454;13.862;2023-04-06T15:38:54;15.70;34.80
18047;DHT22;9148;51.454;13.862;2023-04-06T15:41:21;15.50;35.30